Map

Track Data

SID SEASON NUMBER BASIN SUBBASIN NAME ISO_TIME NATURE LAT LON WMO_WIND WMO_PRES WMO_AGENCY TRACK_TYPE DIST2LAND LANDFALL IFLAG USA_AGENCY USA_ATCF_ID USA_LAT USA_LON USA_RECORD USA_STATUS USA_WIND USA_PRES USA_SSHS USA_R34_NE USA_R34_SE USA_R34_SW USA_R34_NW USA_R50_NE USA_R50_SE USA_R50_SW USA_R50_NW USA_R64_NE USA_R64_SE USA_R64_SW USA_R64_NW USA_POCI USA_ROCI USA_RMW USA_EYE TOKYO_LAT TOKYO_LON TOKYO_GRADE TOKYO_WIND TOKYO_PRES TOKYO_R50_DIR TOKYO_R50_LONG TOKYO_R50_SHORT TOKYO_R30_DIR TOKYO_R30_LONG TOKYO_R30_SHORT TOKYO_LAND CMA_LAT CMA_LON CMA_CAT CMA_WIND CMA_PRES HKO_LAT HKO_LON HKO_CAT HKO_WIND HKO_PRES NEWDELHI_LAT NEWDELHI_LON NEWDELHI_GRADE NEWDELHI_WIND NEWDELHI_PRES NEWDELHI_CI NEWDELHI_DP NEWDELHI_POCI REUNION_LAT REUNION_LON REUNION_TYPE REUNION_WIND REUNION_PRES REUNION_TNUM REUNION_CI REUNION_RMW REUNION_R34_NE REUNION_R34_SE REUNION_R34_SW REUNION_R34_NW REUNION_R50_NE REUNION_R50_SE REUNION_R50_SW REUNION_R50_NW REUNION_R64_NE REUNION_R64_SE REUNION_R64_SW REUNION_R64_NW BOM_LAT BOM_LON BOM_TYPE BOM_WIND BOM_PRES BOM_TNUM BOM_CI BOM_RMW BOM_R34_NE BOM_R34_SE BOM_R34_SW BOM_R34_NW BOM_R50_NE BOM_R50_SE BOM_R50_SW BOM_R50_NW BOM_R64_NE BOM_R64_SE BOM_R64_SW BOM_R64_NW BOM_ROCI BOM_POCI BOM_EYE BOM_POS_METHOD BOM_PRES_METHOD NADI_LAT NADI_LON NADI_CAT NADI_WIND NADI_PRES WELLINGTON_LAT WELLINGTON_LON WELLINGTON_WIND WELLINGTON_PRES DS824_LAT DS824_LON DS824_STAGE DS824_WIND DS824_PRES TD9636_LAT TD9636_LON TD9636_STAGE TD9636_WIND TD9636_PRES TD9635_LAT TD9635_LON TD9635_WIND TD9635_PRES TD9635_ROCI NEUMANN_LAT NEUMANN_LON NEUMANN_CLASS NEUMANN_WIND NEUMANN_PRES MLC_LAT MLC_LON MLC_CLASS MLC_WIND MLC_PRES USA_GUST BOM_GUST BOM_GUST_PER REUNION_GUST REUNION_GUST_PER USA_SEAHGT USA_SEARAD_NE USA_SEARAD_SE USA_SEARAD_SW USA_SEARAD_NW STORM_SPEED STORM_DIR
1996252N11162 1996 80 WP MM TOM 1996-09-08 06:00:00 NR 10.9000 161.800 main 1926 1913 O_____________ jtwc_wp WP251996 10.9000 161.800 15 -1 4 270
1996252N11162 1996 80 WP MM TOM 1996-09-08 09:00:00 NR 10.9000 161.583 main 1913 1895 P_____________ WP251996 10.9000 161.583 15 -1 5 270
1996252N11162 1996 80 WP MM TOM 1996-09-08 12:00:00 NR 10.9000 161.300 main 1895 1871 O_____________ jtwc_wp WP251996 10.9000 161.300 15 -1 7 270
1996252N11162 1996 80 WP MM TOM 1996-09-08 15:00:00 NR 10.9001 160.915 main 1871 1848 P_____________ WP251996 10.9001 160.915 15 -1 8 270
1996252N11162 1996 80 WP MM TOM 1996-09-08 18:00:00 NR 10.9000 160.500 main 1848 1831 O_____________ jtwc_wp WP251996 10.9000 160.500 15 -1 7 270
1996252N11162 1996 80 WP MM TOM 1996-09-08 21:00:00 NR 10.8998 160.180 main 1831 1808 P_____________ WP251996 10.8998 160.180 15 -1 7 270
1996252N11162 1996 80 WP MM TOM 1996-09-09 00:00:00 NR 10.9000 159.800 main 1808 1781 O_____________ jtwc_wp WP251996 10.9000 159.800 15 -1 9 270
1996252N11162 1996 80 WP MM TOM 1996-09-09 03:00:00 NR 10.9001 159.230 main 1775 1744 P_____________ WP251996 10.9001 159.230 15 -1 12 270
1996252N11162 1996 80 WP MM TOM 1996-09-09 06:00:00 NR 10.9000 158.600 main 1744 1719 O_____________ jtwc_wp WP251996 10.9000 158.600 15 -1 12 269
1996252N11162 1996 80 WP MM TOM 1996-09-09 09:00:00 NR 10.8849 158.042 main 1714 1690 P_____________ WP251996 10.8849 158.042 15 -1 11 270
1996252N11162 1996 80 WP MM TOM 1996-09-09 12:00:00 NR 10.9000 157.500 main 1690 1676 O_____________ jtwc_wp WP251996 10.9000 157.500 15 -1 11 275
1996252N11162 1996 80 WP MM TOM 1996-09-09 15:00:00 NR 10.9850 156.935 main 1672 1659 P_____________ WP251996 10.9850 156.935 17 -1 11 280
1996252N11162 1996 80 WP MM TOM 1996-09-09 18:00:00 NR 11.1000 156.400 main 1661 1653 O_____________ jtwc_wp WP251996 11.1000 156.400 20 -1 10 282
1996252N11162 1996 80 WP MM TOM 1996-09-09 21:00:00 NR 11.1999 155.927 main 1652 1645 P_____________ WP251996 11.1999 155.927 20 -1 9 283
1996252N11162 1996 80 WP MM TOM 1996-09-10 00:00:00 NR 11.3000 155.500 main 1649 1642 O_____________ jtwc_wp WP251996 11.3000 155.500 20 -1 8 283
1996252N11162 1996 80 WP MM TOM 1996-09-10 03:00:00 NR 11.3849 155.092 main 1646 1640 P_____________ WP251996 11.3849 155.092 20 -1 8 284
1996252N11162 1996 80 WP MM TOM 1996-09-10 06:00:00 NR 11.5000 154.700 main 1645 1642 O_____________ jtwc_wp WP251996 11.5000 154.700 20 -1 8 291
1996252N11162 1996 80 WP MM TOM 1996-09-10 09:00:00 NR 11.6849 154.307 main 1656 1654 P_____________ WP251996 11.6849 154.307 20 -1 9 297
1996252N11162 1996 80 WP MM TOM 1996-09-10 12:00:00 NR 11.9000 153.900 main 1669 1667 O_____________ jtwc_wp WP251996 11.9000 153.900 20 -1 9 295
1996252N11162 1996 80 WP MM TOM 1996-09-10 15:00:00 NR 12.0774 153.465 main 1682 1679 P_____________ WP251996 12.0774 153.465 20 -1 10 294
1996252N11162 1996 80 WP MM TOM 1996-09-10 18:00:00 NR 12.3000 153.000 main 1696 1695 O_____________ jtwc_wp WP251996 12.3000 153.000 20 -1 11 301
1996252N11162 1996 80 WP MM TOM 1996-09-10 21:00:00 NR 12.6350 152.500 main 1723 1723 P_____________ WP251996 12.6350 152.500 20 -1 12 306
1996252N11162 1996 80 WP MM TOM 1996-09-11 00:00:00 NR 13.0000 152.000 main 1763 1762 O_____________ jtwc_wp WP251996 13.0000 152.000 20 -1 12 306
1996252N11162 1996 80 WP MM TOM 1996-09-11 03:00:00 NR 13.3074 151.535 main 1783 1783 P_____________ WP251996 13.3074 151.535 20 -1 11 304
1996252N11162 1996 80 WP MM TOM 1996-09-11 06:00:00 NR 13.6000 151.100 main 1805 1803 O_____________ jtwc_wp WP251996 13.6000 151.100 20 -1 10 306
1996252N11162 1996 80 WP MM TOM 1996-09-11 09:00:00 NR 13.8999 150.685 main 1829 1826 P_____________ WP251996 13.8999 150.685 22 -1 10 308
1996252N11162 1996 80 WP MM TOM 1996-09-11 12:00:00 NR 14.2000 150.300 main 1853 1852 O_____________ jtwc_wp WP251996 14.2000 150.300 25 -1 9 309
1996252N11162 1996 80 WP MM TOM 1996-09-11 15:00:00 NR 14.4924 149.935 main 1880 1880 P_____________ WP251996 14.4924 149.935 25 -1 9 312
1996252N11162 1996 80 WP MM TOM 1996-09-11 18:00:00 NR 14.8000 149.600 main 1908 1908 O_____________ jtwc_wp WP251996 14.8000 149.600 25 -1 9 316
1996252N11162 1996 80 WP MM TOM 1996-09-11 21:00:00 NR 15.1500 149.285 main 1938 1938 P_____________ WP251996 15.1500 149.285 25 -1 10 328
1996252N11162 1996 80 WP MM TOM 1996-09-12 00:00:00 TS 15.6200 149.080 1006 tokyo main 1991 1991 OO____________ jtwc_wp WP251996 15.5000 149.000 25 -1 16.1000 149.400 2 1006 0 0 0 9 334
1996252N11162 1996 80 WP MM TOM 1996-09-12 03:00:00 TS 15.9500 148.879 main 2023 2023 PP____________ WP251996 15.8000 148.735 27 -1 16.2500 149.168 2 1005 0 0 7 327
1996252N11162 1996 80 WP MM TOM 1996-09-12 06:00:00 TS 16.2000 148.688 1004 tokyo main 2054 2054 OO_O__________ jtwc_wp WP251996 16.1000 148.500 30 -1 16.4000 148.900 2 1004 0 0 0 16.0000 148.800 TD 30 1000 7 323
1996252N11162 1996 80 WP MM TOM 1996-09-12 09:00:00 TS 16.4790 148.463 main 2087 2086 PP_P__________ WP251996 16.4349 148.300 32 -1 16.5626 148.585 2 1003 0 0 16.4001 148.548 TD 30 1000 7 324
1996252N11162 1996 80 WP MM TOM 1996-09-12 12:00:00 TS 16.8000 148.227 1002 tokyo main 2118 2118 OO_O__________ jtwc_wp WP251996 16.8000 148.100 35 0 16.8000 148.300 2 1002 0 0 0 16.8000 148.300 TD 30 1000 8 329
1996252N11162 1996 80 WP MM TOM 1996-09-12 15:00:00 TS 17.1899 148.019 main 2133 2084 PP_P__________ WP251996 17.2000 147.858 37 0 17.1699 148.142 2 1002 0 0 17.1999 148.057 TD 32 999 9 333
1996252N11162 1996 80 WP MM TOM 1996-09-12 18:00:00 TS 17.5769 147.815 1002 tokyo main 2084 2035 OOOO__________ jtwc_wp WP251996 17.6000 147.600 40 0 17.6000 148.000 2 1002 0 0 0 17.3000 148.000 1 23 1002 17.6000 147.800 TS 35 998 9 332
1996252N11162 1996 80 WP MM TOM 1996-09-12 21:00:00 TS 17.9760 147.587 main 2035 1982 PPPP__________ WP251996 17.9649 147.357 42 0 17.9998 147.802 2 1001 0 0 17.8875 147.778 1 26 1001 18.0075 147.507 TS 37 996 9 329
1996252N11162 1996 80 WP MM TOM 1996-09-13 00:00:00 TS 18.3733 147.313 1000 tokyo main 1982 1939 OOOO__________ jtwc_wp WP251996 18.3000 147.100 45 0 18.4000 147.500 2 1000 0 0 0 18.4000 147.500 1 29 1000 18.4000 147.200 TS 40 994 10 323
1996252N11162 1996 80 WP MM TOM 1996-09-13 03:00:00 TS 18.7531 146.976 main 1929 1883 PPPP__________ WP251996 18.6224 146.822 45 0 18.8226 147.038 2 998 0 0 18.7875 147.130 1 31 999 18.7799 146.915 TS 40 994 10 315
1996252N11162 1996 80 WP MM TOM 1996-09-13 06:00:00 TS 19.0750 146.575 35 996 tokyo main 1883 1848 OOOO__________ jtwc_wp WP251996 18.9000 146.500 45 0 19.2000 146.500 3 35 996 0 9 100 100 0 19.1000 146.700 2 34 998 19.1000 146.600 TS 40 994 10 308
1996252N11162 1996 80 WP MM TOM 1996-09-13 09:00:00 TS 19.3555 146.156 main 1838 1811 PPPP__________ WP251996 19.1300 146.107 47 0 19.5023 146.007 3 40 994 0 9 120 120 19.4446 146.295 2 36 996 19.3450 146.215 TS 42 992 10 300
1996252N11162 1996 80 WP MM TOM 1996-09-13 12:00:00 TS 19.5500 145.700 45 992 tokyo main 1800 1786 OOOO__________ jtwc_wp WP251996 19.3000 145.700 50 0 19.7000 145.500 3 45 992 0 9 140 140 0 19.7000 145.800 2 38 995 19.5000 145.800 TS 45 990 10 288
1996252N11162 1996 80 WP MM TOM 1996-09-13 15:00:00 TS 19.6465 145.177 main 1786 1761 PPPP__________ WP251996 19.4223 145.350 50 0 19.7878 144.897 3 45 991 0 9 145 145 19.8033 145.062 2 38 995 19.5724 145.400 TS 45 990 10 278
1996252N11162 1996 80 WP MM TOM 1996-09-13 18:00:00 TS 19.6750 144.700 45 990 tokyo main 1761 1750 OOOO__________ jtwc_wp WP251996 19.5000 145.000 50 0 19.8000 144.400 3 45 990 0 9 150 150 0 19.8000 144.400 2 38 995 19.6000 145.000 TS 45 990 8 273
1996252N11162 1996 80 WP MM TOM 1996-09-13 21:00:00 TS 19.6910 144.377 main 1750 1736 PPPP__________ WP251996 19.5501 144.592 52 0 19.7997 144.190 3 45 990 0 9 150 150 19.7570 144.140 2 38 992 19.6575 144.585 TS 45 990 5 273
1996252N11162 1996 80 WP MM TOM 1996-09-14 00:00:00 TS 19.7000 144.125 45 990 tokyo main 1736 1727 OOOO__________ jtwc_wp WP251996 19.6000 144.200 55 0 19.8000 144.100 3 45 990 0 9 150 150 0 19.7000 144.000 2 38 990 19.7000 144.200 TS 45 990 5 273
1996252N11162 1996 80 WP MM TOM 1996-09-14 03:00:00 TS 19.7206 143.840 main 1722 1703 PPPP__________ WP251996 19.7000 143.855 55 0 19.8350 143.943 3 47 987 0 9 165 165 19.6626 143.692 2 43 987 19.6849 143.870 TS 47 987 5 279
1996252N11162 1996 80 WP MM TOM 1996-09-14 06:00:00 TS 19.7750 143.600 50 985 tokyo main 1703 1684 OOOO__________ jtwc_wp WP251996 19.8000 143.600 55 0 19.9000 143.800 4 50 985 0 9 180 180 0 19.7000 143.400 3 48 985 19.7000 143.600 STS 50 985 4 293
1996252N11162 1996 80 WP MM TOM 1996-09-14 09:00:00 TS 19.8868 143.421 main 1684 1670 PPPP__________ WP251996 19.8499 143.455 55 0 20.0000 143.678 4 50 985 0 9 180 180 19.8774 143.205 3 48 985 19.8200 143.348 STS 50 985 4 314
1996252N11162 1996 80 WP MM TOM 1996-09-14 12:00:00 TS 20.0250 143.325 50 985 tokyo main 1670 1659 OOOO__________ jtwc_wp WP251996 19.9000 143.400 55 0 20.1000 143.600 4 50 985 0 9 180 180 0 20.1000 143.100 3 48 985 20.0000 143.200 STS 50 985 3 337
1996252N11162 1996 80 WP MM TOM 1996-09-14 15:00:00 TS 20.1537 143.296 main 1649 1639 PPPP__________ WP251996 19.9925 143.370 57 0 20.1500 143.570 4 50 985 0 9 180 180 20.2725 143.055 3 48 982 20.1999 143.190 STS 52 982 3 2
1996252N11162 1996 80 WP MM TOM 1996-09-14 18:00:00 TS 20.2750 143.350 50 985 tokyo main 1644 1634 OOOO__________ jtwc_wp WP251996 20.1000 143.400 60 0 20.2000 143.600 4 50 985 0 9 180 180 0 20.4000 143.100 3 48 980 20.4000 143.300 STS 55 980 3 34
1996252N11162 1996 80 WP MM TOM 1996-09-14 21:00:00 TS 20.3656 143.450 main 1638 1633 PPPP__________ WP251996 20.1924 143.448 62 0 20.2700 143.678 4 52 982 0 9 180 180 20.4349 143.198 3 53 980 20.5650 143.477 STS 57 977 3 52
1996252N11162 1996 80 WP MM TOM 1996-09-15 00:00:00 TS 20.4750 143.625 55 980 tokyo main 1633 1632 OOOO__________ jtwc_wp WP251996 20.3000 143.600 65 1 20.4000 143.800 4 55 980 9 50 50 9 180 180 0 20.5000 143.400 3 58 980 20.7000 143.700 STS 60 975 5 55
1996252N11162 1996 80 WP MM TOM 1996-09-15 03:00:00 TS 20.6400 143.867 main 1637 1622 PPPP__________ WP251996 20.4352 143.927 65 1 20.6124 143.920 4 57 977 9 55 55 9 180 180 20.7126 143.727 3 58 980 20.7999 143.893 STS 60 975 6 53
1996252N11162 1996 80 WP MM TOM 1996-09-15 06:00:00 TS 20.8500 144.150 60 975 tokyo main 1618 1602 OOOO__________ jtwc_wp WP251996 20.6000 144.300 65 1 20.9000 144.100 4 60 975 9 60 60 9 180 180 0 21.0000 144.100 3 58 980 20.9000 144.100 STS 60 975 7 49
1996252N11162 1996 80 WP MM TOM 1996-09-15 09:00:00 TS 21.1019 144.434 main 1602 1586 PPPP__________ WP251996 20.7924 144.580 67 1 21.2651 144.400 4 62 972 9 65 65 9 190 190 21.3074 144.415 3 58 980 21.0425 144.343 STS 60 975 7 46
1996252N11162 1996 80 WP MM TOM 1996-09-15 12:00:00 TS 21.3500 144.700 65 970 tokyo main 1578 1570 OOOO__________ jtwc_wp WP251996 21.0000 144.800 70 1 21.6000 144.700 5 65 970 9 70 70 9 200 200 0 21.6000 144.700 3 58 980 21.2000 144.600 STS 60 975 6 46
1996252N11162 1996 80 WP MM TOM 1996-09-15 15:00:00 TS 21.5437 144.917 main 1573 1555 PPPP__________ WP251996 21.1850 144.973 72 1 21.7949 144.865 5 67 967 9 72 72 9 200 200 21.8450 144.980 3 63 975 21.3500 144.850 STS 62 972 5 47
1996252N11162 1996 80 WP MM TOM 1996-09-15 18:00:00 TS 21.7000 145.100 70 965 tokyo main 1558 1550 OOOO__________ jtwc_wp WP251996 21.4000 145.100 75 1 21.9000 145.000 5 70 965 9 75 75 9 200 200 0 22.0000 145.200 4 68 970 21.5000 145.100 T 65 970 4 47
1996252N11162 1996 80 WP MM TOM 1996-09-15 21:00:00 TS 21.8305 145.250 main 1550 1543 PPPP__________ WP251996 21.7074 145.170 75 1 21.9574 145.178 5 70 965 9 77 77 9 225 225 22.0148 145.293 4 68 970 21.6425 145.358 T 67 967 4 50
1996252N11162 1996 80 WP MM TOM 1996-09-16 00:00:00 TS 21.9500 145.425 70 965 tokyo main 1536 1536 OOOO__________ jtwc_wp WP251996 22.0000 145.300 75 1 22.0000 145.400 5 70 965 9 80 80 9 250 250 0 22.0000 145.400 4 68 970 21.8000 145.600 T 70 965 5 60
1996252N11162 1996 80 WP MM TOM 1996-09-16 03:00:00 TS 22.0726 145.701 main 1536 1532 PPPP__________ WP251996 22.1727 145.628 75 1 22.0776 145.700 5 70 965 9 80 80 9 250 250 22.0476 145.670 4 68 970 21.9924 145.808 T 70 965 6 63
1996252N11162 1996 80 WP MM TOM 1996-09-16 06:00:00 TS 22.2250 146.000 70 965 tokyo main 1536 1523 OOOO__________ jtwc_wp WP251996 22.3000 146.000 75 1 22.2000 146.000 5 70 965 9 80 80 9 250 250 0 22.2000 146.000 4 68 970 22.2000 146.000 T 70 965 6 54
1996252N11162 1996 80 WP MM TOM 1996-09-16 09:00:00 TS 22.4368 146.252 main 1527 1504 PPPP__________ WP251996 22.4349 146.273 75 1 22.3774 146.223 5 70 965 9 80 80 9 250 250 22.5425 146.322 4 68 970 22.3924 146.193 T 70 965 6 44
1996252N11162 1996 80 WP MM TOM 1996-09-16 12:00:00 TS 22.6750 146.475 70 965 tokyo main 1504 1488 OOOO__________ jtwc_wp WP251996 22.6000 146.500 75 1 22.6000 146.400 5 70 965 9 80 80 9 250 250 0 22.9000 146.600 4 68 970 22.6000 146.400 T 70 965 6 39
1996252N11162 1996 80 WP MM TOM 1996-09-16 15:00:00 TS 22.8980 146.663 main 1492 1476 PPPP__________ WP251996 22.8349 146.708 75 1 22.8424 146.535 5 70 965 9 80 80 9 250 250 23.0724 146.765 4 68 970 22.8425 146.643 T 67 967 6 37
1996252N11162 1996 80 WP MM TOM 1996-09-16 18:00:00 TS 23.1250 146.850 70 965 tokyo main 1476 1465 OOOO__________ jtwc_wp WP251996 23.1000 146.900 75 1 23.1000 146.700 5 70 965 9 80 80 9 250 250 0 23.2000 146.900 4 68 970 23.1000 146.900 T 65 970 6 40
1996252N11162 1996 80 WP MM TOM 1996-09-16 21:00:00 TS 23.3531 147.080 main 1460 1449 PPPP__________ WP251996 23.3499 147.093 72 1 23.3276 146.993 5 70 965 9 80 80 9 250 250 23.3849 147.078 4 63 970 23.3500 147.158 T 65 970 6 43
1996252N11162 1996 80 WP MM TOM 1996-09-17 00:00:00 TS 23.6000 147.325 70 965 tokyo main 1449 1429 OOOO__________ jtwc_wp WP251996 23.6000 147.300 70 1 23.6000 147.300 5 70 965 9 80 80 9 250 250 0 23.6000 147.300 3 58 970 23.6000 147.400 T 65 970 7 40
1996252N11162 1996 80 WP MM TOM 1996-09-17 03:00:00 TS 23.8837 147.568 main 1434 1415 PPPP__________ WP251996 23.8425 147.543 70 1 24.0149 147.515 5 70 965 9 80 80 9 250 250 23.8352 147.615 3 56 977 23.8424 147.600 T 65 970 7 37
1996252N11162 1996 80 WP MM TOM 1996-09-17 06:00:00 TS 24.1750 147.800 70 965 tokyo main 1415 1402 OOOO__________ jtwc_wp WP251996 24.1000 147.800 70 1 24.4000 147.700 5 70 965 9 80 80 9 250 250 0 24.1000 147.900 3 54 985 24.1000 147.800 T 65 970 7 35
1996252N11162 1996 80 WP MM TOM 1996-09-17 09:00:00 TS 24.4430 147.991 main 1407 1389 PPPP__________ WP251996 24.3924 148.043 70 1 24.5874 147.885 5 67 967 9 75 75 9 225 225 24.3923 147.993 3 51 985 24.4000 148.042 T 65 970 6 35
1996252N11162 1996 80 WP MM TOM 1996-09-17 12:00:00 TS 24.7000 148.200 65 970 tokyo main 1389 1381 OOOO__________ jtwc_wp WP251996 24.7000 148.300 70 1 24.7000 148.100 5 65 970 9 70 70 9 200 200 0 24.7000 148.100 3 48 985 24.7000 148.300 T 65 970 7 42
1996252N11162 1996 80 WP MM TOM 1996-09-17 15:00:00 TS 24.9388 148.483 main 1386 1369 PPPP__________ WP251996 24.9849 148.585 67 1 24.8200 148.378 5 65 970 9 70 70 9 200 200 25.0077 148.427 3 48 985 24.9424 148.543 T 62 972 7 47
1996252N11162 1996 80 WP MM TOM 1996-09-17 18:00:00 TS 25.2000 148.800 65 970 tokyo main 1375 1364 OOOO__________ jtwc_wp WP251996 25.3000 148.900 65 1 25.0000 148.700 5 65 970 9 70 70 9 200 200 0 25.3000 148.800 3 48 985 25.2000 148.800 STS 60 975 8 45
1996252N11162 1996 80 WP MM TOM 1996-09-17 21:00:00 TS 25.5055 149.102 main 1364 1346 PPPP__________ WP251996 25.6775 149.250 62 0 25.3049 149.035 5 65 970 9 70 70 9 200 200 25.5197 149.043 3 46 987 25.5199 149.078 STS 57 977 9 40
1996252N11162 1996 80 WP MM TOM 1996-09-18 00:00:00 TS 25.8750 149.425 65 970 tokyo main 1346 1330 OOOO__________ jtwc_wp WP251996 26.1000 149.600 60 0 25.7000 149.400 5 65 970 9 70 70 9 200 200 0 25.8000 149.300 2 44 990 25.9000 149.400 STS 55 980 10 37
1996252N11162 1996 80 WP MM TOM 1996-09-18 03:00:00 TS 26.3130 149.776 main 1336 1320 PPPP__________ WP251996 26.5422 149.878 57 0 26.1124 149.785 5 65 970 9 70 70 9 200 200 26.2700 149.670 2 41 992 26.3274 149.770 STS 52 982 11 36
1996252N11162 1996 80 WP MM TOM 1996-09-18 06:00:00 TS 26.8000 150.175 65 970 tokyo main 1320 1307 OOOO__________ jtwc_wp WP251996 27.0000 150.200 55 0 26.6000 150.200 5 65 970 9 70 70 9 200 200 0 26.8000 150.100 2 38 995 26.8000 150.200 STS 50 985 12 37
1996252N11162 1996 80 WP MM TOM 1996-09-18 09:00:00 TS 27.2923 150.615 main 1307 1303 PPPP__________ WP251996 27.4498 150.648 55 0 27.1997 150.620 5 62 972 9 65 65 9 190 190 27.2347 150.521 2 38 995 27.2848 150.671 STS 47 987 13 40
1996252N11162 1996 80 WP MM TOM 1996-09-18 12:00:00 TS 27.8000 151.120 60 975 tokyo main 1303 1301 OOOO__________ jtwc_wp WP251996 27.9000 151.200 55 0 27.8000 151.100 4 60 975 9 60 60 9 180 180 0 27.7000 151.000 2 38 995 27.8000 151.200 TS 45 990 14 44
1996252N11162 1996 80 WP MM TOM 1996-09-18 15:00:00 TS 28.2847 151.710 main 1308 1307 PPPP__________ WP251996 28.3055 151.873 55 0 28.2424 151.671 4 60 975 9 60 60 9 180 180 28.2771 151.548 2 38 995 28.3431 151.784 TS 42 991 15 47
1996252N11162 1996 80 WP MM TOM 1996-09-18 18:00:00 TS 28.8077 152.338 60 975 tokyo main 1316 1316 OOOO__________ jtwc_wp WP251996 28.8000 152.500 55 0 28.7000 152.300 4 60 975 9 60 60 9 180 180 0 28.9000 152.200 2 38 995 28.9000 152.400 TS 40 992 16 43
1996252N11162 1996 80 WP MM TOM 1996-09-18 21:00:00 TS 29.4290 152.939 main 1322 1319 PPP___________ WP251996 29.5117 152.866 55 0 29.2896 152.929 4 60 975 9 60 60 9 180 180 29.4858 153.022 2 38 995 TS 17 38
1996252N11162 1996 80 WP MM TOM 1996-09-19 00:00:00 TS 30.1333 153.533 60 975 tokyo main 1328 1325 OOO___________ jtwc_wp WP251996 30.3000 153.200 55 0 30.0000 153.600 4 60 975 9 60 60 9 180 180 0 30.1000 153.800 2 38 995 18 35
1996252N11162 1996 80 WP MM TOM 1996-09-19 03:00:00 TS 30.8802 154.095 main 1334 1334 PPP___________ WP251996 31.0370 153.683 55 0 30.8351 154.350 4 57 977 9 55 55 9 180 180 30.7685 154.253 2 38 995 18 34
1996252N11162 1996 80 WP MM TOM 1996-09-19 06:00:00 TS 31.6333 154.700 55 980 tokyo main 1352 1348 OOO___________ jtwc_wp WP251996 31.7000 154.300 55 0 31.7000 155.100 4 55 980 9 50 50 9 180 180 0 31.5000 154.700 2 38 995 19 37
1996252N11162 1996 80 WP MM TOM 1996-09-19 09:00:00 TS 32.3641 155.422 main 1381 1381 PPP___________ WP251996 32.2600 155.055 55 0 32.5018 155.759 4 55 980 9 50 50 9 180 180 32.3305 155.453 2 38 995 19 43
1996252N11162 1996 80 WP MM TOM 1996-09-19 12:00:00 TS 33.0000 156.200 55 980 tokyo main 1431 1431 OOO___________ jtwc_wp WP251996 32.7000 155.900 55 0 33.2000 156.400 4 55 980 9 50 50 9 180 180 0 33.1000 156.300 2 38 995 17 49
1996252N11162 1996 80 WP MM TOM 1996-09-19 15:00:00 TS 33.4880 156.975 main 1469 1466 PPP___________ WP251996 33.0147 156.752 52 0 33.7748 157.100 4 55 980 9 50 50 9 180 180 33.6746 157.074 2 38 995 15 56
1996252N11162 1996 80 WP MM TOM 1996-09-19 18:00:00 TS 33.8455 157.727 55 980 tokyo main 1478 1468 OOO___________ jtwc_wp WP251996 33.3000 157.600 50 0 34.2000 157.800 4 55 980 9 50 50 9 180 180 0 34.1000 157.800 2 38 995 14 61
1996252N11162 1996 80 WP MM TOM 1996-09-19 21:00:00 TS 34.1506 158.437 main 1466 1466 PPP___________ WP251996 33.6845 158.415 47 0 34.4793 158.444 4 55 980 9 50 50 9 180 180 34.4256 158.467 2 38 995 13 63
1996252N11162 1996 80 WP MM TOM 1996-09-20 00:00:00 TS 34.4333 159.144 55 980 tokyo main 1477 1472 OOO___________ jtwc_wp WP251996 34.1000 159.200 45 0 34.7000 159.100 4 55 980 9 50 50 9 180 180 0 34.7000 159.100 2 38 995 13 64
1996252N11162 1996 80 WP MM TOM 1996-09-20 03:00:00 TS 34.7420 159.889 main 1486 1477 PP____________ WP251996 34.4995 159.966 45 0 34.9844 159.813 4 55 980 9 50 50 9 180 180 2 14 62
1996252N11162 1996 80 WP MM TOM 1996-09-20 06:00:00 TS 35.1000 160.650 55 980 tokyo main 1489 1484 OO____________ jtwc_wp WP251996 34.9000 160.700 45 0 35.3000 160.600 4 55 980 9 50 50 9 180 180 0 15 61
1996252N11162 1996 80 WP MM TOM 1996-09-20 09:00:00 TS 35.4675 161.462 main 1496 1492 PP____________ WP251996 35.2996 161.416 45 0 35.6354 161.508 4 982 9 9 15 60
1996252N11162 1996 80 WP MM TOM 1996-09-20 12:00:00 ET 35.8500 162.250 984 tokyo main 1503 1503 OO____________ jtwc_wp WP251996 35.7000 162.100 45 0 36.0000 162.400 6 984 0 0 0 14 58
1996252N11162 1996 80 WP MM TOM 1996-09-20 15:00:00 ET 36.2344 162.956 main 1517 1509 PP____________ WP251996 36.0997 162.773 45 0 36.3691 163.139 6 986 0 0 14 54
1996252N11162 1996 80 WP MM TOM 1996-09-20 18:00:00 ET 36.6500 163.600 988 tokyo main 1511 1511 OO____________ jtwc_wp WP251996 36.5000 163.400 45 0 36.8000 163.800 6 988 0 0 0 13 49
1996252N11162 1996 80 WP MM TOM 1996-09-20 21:00:00 ET 37.1172 164.226 main 1515 1509 PP____________ WP251996 36.9070 163.966 45 0 37.3275 164.487 6 988 0 0 13 45
1996252N11162 1996 80 WP MM TOM 1996-09-21 00:00:00 ET 37.6000 164.800 988 tokyo main 1514 1510 OO____________ jtwc_wp WP251996 37.3000 164.500 45 0 37.9000 165.100 6 988 0 0 0 13 43
1996252N11162 1996 80 WP MM TOM 1996-09-21 03:00:00 ET 38.0610 165.331 main 1510 1508 PP____________ WP251996 37.6497 165.051 45 0 38.4722 165.610 6 988 0 0 12 41
1996252N11162 1996 80 WP MM TOM 1996-09-21 06:00:00 ET 38.5000 165.800 988 tokyo main 1514 1493 OO____________ jtwc_wp WP251996 38.0000 165.600 45 0 39.0000 166.000 6 988 0 0 0 11 39
1996252N11162 1996 80 WP MM TOM 1996-09-21 09:00:00 ET 38.9145 166.208 main 1493 1471 PP____________ WP251996 38.3918 166.121 45 0 39.4373 166.296 6 988 0 0 10 38
1996252N11162 1996 80 WP MM TOM 1996-09-21 12:00:00 ET 39.3000 166.600 988 tokyo main 1471 1457 OO____________ jtwc_wp WP251996 38.8000 166.700 45 0 39.8000 166.500 6 988 0 0 0 10 41
1996252N11162 1996 80 WP MM TOM 1996-09-21 15:00:00 ET 39.6498 167.036 main 1461 1452 PP____________ WP251996 39.1771 167.399 45 0 40.1224 166.673 6 989 0 0 10 50
1996252N11162 1996 80 WP MM TOM 1996-09-21 18:00:00 ET 39.9429 167.600 990 tokyo main 1462 1452 OO____________ jtwc_wp WP251996 39.6000 168.200 45 0 40.4000 166.800 6 990 0 0 0 12 58
1996252N11162 1996 80 WP MM TOM 1996-09-21 21:00:00 ET 40.2828 168.335 main 1460 1460 PP____________ WP251996 40.0966 169.050 45 0 40.6550 166.905 6 990 0 0 16 60
1996252N11162 1996 80 WP MM TOM 1996-09-22 00:00:00 ET 40.7400 169.400 990 tokyo main 1483 1480 OO____________ jtwc_wp WP251996 40.7000 170.000 45 0 40.9000 167.000 6 990 0 0 0 23 62
1996252N11162 1996 80 WP MM TOM 1996-09-22 03:00:00 NR 41.3967 171.050 main 1505 1493 P_____________ WP251996 41.3967 171.050 45 0 6 0 0 26 55
1996252N11162 1996 80 WP MM TOM 1996-09-22 06:00:00 NR 42.2000 172.200 main 1498 1481 O_____________ jtwc_wp WP251996 42.2000 172.200 45 0 24 46
1996252N11162 1996 80 WP MM TOM 1996-09-22 09:00:00 NR 43.0828 173.422 main 1478 1467 P_____________ WP251996 43.0828 173.422 45 0 26 45
1996252N11162 1996 80 WP MM TOM 1996-09-22 12:00:00 NR 44.0000 174.700 main 1466 O_____________ jtwc_wp WP251996 44.0000 174.700 45 0 26 45

Digital Typhoon Data and Search

About IBTrACS Database

This database is a web-friendly format of International Best Track Archive for Climate Stewardship (IBTrACS), a global best track data archive curated by NOAA dating back to 1842.

Updated: 2021-12-03